Time;durP1;ratioP1;P1;durP2;ratioP2;P2;SDS_P1;SDS_P2;PMS_P1;PMS_P2;Temp;Humidity;BMP_temperature;BMP_pressure;BME280_temperature;BME280_humidity;BME280_pressure;Samples;Min_cycle;Max_cycle;Signal;HPM_P1;HPM_P2
2021/01/29 00:02:36;;;;;;;1.17;0.90;;;;;;;3.97;100.00;97814.41;3932771;74;389916;-80
2021/01/29 00:07:58;;;;;;;1.07;0.63;;;;;;;3.92;100.00;97799.05;3933352;74;383644;-79
2021/01/29 00:13:21;;;;;;;0.90;0.80;;;;;;;3.85;100.00;97801.16;3932638;74;392917;-79
2021/01/29 00:18:43;;;;;;;1.60;1.50;;;;;;;3.86;100.00;97807.40;3932615;74;383575;-79
2021/01/29 00:24:04;;;;;;;1.00;0.60;;;;;;;3.79;100.00;97799.23;3933074;74;387988;-79
2021/01/29 00:29:25;;;;;;;1.00;0.87;;;;;;;3.75;100.00;97797.87;3932842;74;389881;-79
2021/01/29 00:34:46;;;;;;;1.27;1.17;;;;;;;3.80;100.00;97798.84;3932764;74;392174;-79
2021/01/29 00:40:09;;;;;;;1.47;0.70;;;;;;;3.78;100.00;97785.44;3932999;74;387929;-79
2021/01/29 00:45:32;;;;;;;1.40;0.93;;;;;;;3.75;100.00;97770.67;3932795;74;387960;-79
2021/01/29 00:50:54;;;;;;;1.00;0.90;;;;;;;3.72;100.00;97757.83;3935242;74;383683;-79
2021/01/29 00:56:15;;;;;;;2.73;1.13;;;;;;;3.70;100.00;97751.23;3932419;74;391861;-79
2021/01/29 01:01:37;;;;;;;5.67;1.67;;;;;;;3.66;100.00;97724.61;3932383;74;394043;-79
2021/01/29 01:06:58;;;;;;;2.30;2.10;;;;;;;3.61;100.00;97727.72;3932137;74;394243;-79
2021/01/29 01:12:19;;;;;;;0.93;0.60;;;;;;;3.59;100.00;97721.87;3933018;74;383548;-79
2021/01/29 01:17:41;;;;;;;1.57;1.00;;;;;;;3.64;100.00;97718.20;3932469;74;395028;-79
2021/01/29 01:23:04;;;;;;;1.97;0.90;;;;;;;3.63;100.00;97713.92;3903513;74;384497;-79
2021/01/29 01:28:25;;;;;;;2.00;1.80;;;;;;;3.60;100.00;97706.53;3892827;75;383988;-79
2021/01/29 01:33:45;;;;;;;3.20;1.60;;;;;;;3.62;100.00;97688.50;3892842;74;393994;-78
2021/01/29 01:39:07;;;;;;;1.37;1.27;;;;;;;3.58;100.00;97656.44;3892507;74;391927;-78
2021/01/29 01:44:40;;;;;;;5.80;2.20;;;;;;;3.55;100.00;97659.35;3892585;75;392129;-78
2021/01/29 01:50:07;;;;;;;2.70;1.60;;;;;;;3.59;100.00;97656.63;3893228;74;391871;-79
2021/01/29 01:55:31;;;;;;;1.43;1.33;;;;;;;3.60;100.00;97654.11;3894025;75;396379;-79
2021/01/29 02:00:52;;;;;;;1.00;0.83;;;;;;;3.58;100.00;97645.00;3894671;74;388009;-79
2021/01/29 02:06:13;;;;;;;1.13;1.03;;;;;;;3.54;100.00;97640.13;3893670;75;391958;-79
2021/01/29 02:11:34;;;;;;;5.60;2.20;;;;;;;3.54;100.00;97623.05;3893184;75;389817;-79
2021/01/29 02:17:11;;;;;;;12.20;2.20;;;;;;;3.59;100.00;97615.86;3893733;75;392112;-79
2021/01/29 02:22:43;;;;;;;2.10;2.00;;;;;;;3.56;100.00;97611.98;3887225;74;391854;-79
2021/01/29 02:28:07;;;;;;;2.13;1.47;;;;;;;3.57;100.00;97630.41;3732640;77;392973;-79
2021/01/29 02:33:43;;;;;;;1.67;0.97;;;;;;;3.59;100.00;97620.73;3733099;77;393998;-79
2021/01/29 02:39:25;;;;;;;4.07;1.07;;;;;;;3.54;100.00;97609.45;3732818;77;392902;-79
2021/01/29 02:45:03;;;;;;;1.50;1.30;;;;;;;3.59;100.00;97589.46;3732611;78;394054;-79
2021/01/29 02:50:27;;;;;;;2.20;0.87;;;;;;;3.55;100.00;97567.52;3732387;78;394274;-80
2021/01/29 02:55:57;;;;;;;1.83;1.23;;;;;;;3.57;100.00;97559.73;3756883;75;384544;-79
2021/01/29 03:01:21;;;;;;;2.07;0.87;;;;;;;3.56;100.00;97550.81;3893883;75;393957;-79
2021/01/29 03:06:45;;;;;;;1.00;0.90;;;;;;;3.56;100.00;97522.84;3893630;74;383856;-79
2021/01/29 03:12:15;;;;;;;8.20;3.27;;;;;;;3.54;100.00;97512.95;3895331;74;391857;-79
2021/01/29 03:17:45;;;;;;;1.43;1.13;;;;;;;3.51;100.00;97496.85;3893706;75;383577;-79
2021/01/29 03:23:21;;;;;;;1.33;0.60;;;;;;;3.52;100.00;97486.74;3917330;74;390749;-80
2021/01/29 03:28:47;;;;;;;1.43;0.93;;;;;;;3.61;100.00;97488.47;3934432;74;391871;-80
2021/01/29 03:34:11;;;;;;;3.13;1.67;;;;;;;3.51;100.00;97483.27;3933333;74;394983;-80
2021/01/29 03:39:38;;;;;;;1.33;0.90;;;;;;;3.46;100.00;97472.77;3934776;74;383580;-80
2021/01/29 03:45:14;;;;;;;2.77;2.57;;;;;;;3.47;100.00;97448.50;3932027;74;391917;-80
2021/01/29 03:50:41;;;;;;;2.20;2.10;;;;;;;3.46;100.00;97437.44;3934644;74;385714;-81
2021/01/29 03:56:27;;;;;;;2.83;1.70;;;;;;;3.39;100.00;97406.80;3932283;74;387798;-80
2021/01/29 04:02:18;;;;;;;1.63;1.53;;;;;;;3.46;100.00;97406.19;3932480;74;391945;-80
2021/01/29 04:07:48;;;;;;;1.63;1.53;;;;;;;3.38;100.00;97379.44;3932599;74;383577;-80
2021/01/29 04:13:12;;;;;;;0.90;0.70;;;;;;;3.48;100.00;97371.23;3935267;74;385624;-80
2021/01/29 04:18:38;;;;;;;0.90;0.63;;;;;;;3.46;100.00;97353.78;3935354;74;383549;-80
2021/01/29 04:24:11;;;;;;;1.80;1.70;;;;;;;3.43;100.00;97359.99;3909077;74;383825;-81
2021/01/29 04:29:39;;;;;;;1.43;0.90;;;;;;;3.42;100.00;97344.28;3895017;74;394281;-81
2021/01/29 04:35:03;;;;;;;1.83;1.33;;;;;;;3.44;100.00;97346.59;3884636;74;397012;-82
2021/01/29 04:40:36;;;;;;;2.40;2.00;;;;;;;3.50;100.00;97323.27;3895132;75;389769;-82
2021/01/29 04:46:16;;;;;;;4.47;1.27;;;;;;;3.46;100.00;97308.94;3894854;75;395059;-82
2021/01/29 04:52:02;;;;;;;2.60;1.33;;;;;;;3.43;100.00;97292.81;3892632;75;394992;-81
2021/01/29 04:57:49;;;;;;;1.60;1.50;;;;;;;3.44;100.00;97272.63;3894850;75;395374;-80
2021/01/29 05:03:19;;;;;;;3.13;2.03;;;;;;;3.52;100.00;97258.42;3894697;74;396128;-81
2021/01/29 05:09:06;;;;;;;2.40;1.63;;;;;;;3.43;100.00;97233.63;3877079;74;396294;-81
2021/01/29 05:15:02;;;;;;;1.13;1.03;;;;;;;3.47;100.00;97222.92;3895238;75;391926;-81
2021/01/29 05:20:47;;;;;;;2.40;0.90;;;;;;;3.57;100.00;97206.34;3893428;75;393935;-81
2021/01/29 05:26:14;;;;;;;1.73;1.33;;;;;;;3.51;100.00;97186.20;3934026;74;389781;-81
2021/01/29 05:32:12;;;;;;;0.80;0.50;;;;;;;3.50;100.00;97182.73;3933293;74;383541;-81
2021/01/29 05:37:52;;;;;;;0.83;0.50;;;;;;;3.50;100.00;97165.63;3933969;74;383800;-81
2021/01/29 05:43:42;;;;;;;1.43;1.03;;;;;;;3.48;100.00;97144.86;3932632;74;393977;-81
2021/01/29 05:49:31;;;;;;;3.57;1.13;;;;;;;3.57;100.00;97139.19;3934179;74;396363;-81
2021/01/29 05:55:24;;;;;;;0.90;0.70;;;;;;;3.53;100.00;97109.12;3933433;74;383843;-81
2021/01/29 06:01:00;;;;;;;1.50;0.73;;;;;;;3.52;100.00;97100.78;3932907;74;383812;-81
2021/01/29 06:06:57;;;;;;;1.37;1.27;;;;;;;3.53;100.00;97084.66;3886747;74;391946;-81
2021/01/29 06:12:42;;;;;;;0.80;0.50;;;;;;;3.52;100.00;97066.81;3935252;74;383540;-81
2021/01/29 06:18:18;;;;;;;1.17;0.80;;;;;;;3.50;100.00;97044.69;3934404;74;392206;-81
2021/01/29 06:23:45;;;;;;;0.80;0.50;;;;;;;3.60;100.00;97035.67;3934283;74;383568;-81
2021/01/29 06:29:17;;;;;;;1.27;0.60;;;;;;;3.62;100.00;97025.17;3933227;74;390040;-82
2021/01/29 06:35:06;;;;;;;2.63;2.30;;;;;;;3.71;100.00;97014.60;3934610;74;383797;-82
2021/01/29 06:40:40;;;;;;;1.17;0.90;;;;;;;3.74;100.00;96992.81;3935100;74;385644;-82
2021/01/29 06:46:37;;;;;;;0.90;0.67;;;;;;;3.76;100.00;96987.72;3933414;74;384550;-82
2021/01/29 06:52:25;;;;;;;1.00;0.60;;;;;;;3.75;100.00;96975.33;3933389;74;387741;-81
2021/01/29 06:58:13;;;;;;;1.97;1.87;;;;;;;3.79;100.00;96957.61;3932613;74;395041;-81
2021/01/29 07:03:56;;;;;;;1.30;1.13;;;;;;;3.84;100.00;96938.88;3852706;74;394214;-80
2021/01/29 07:09:20;;;;;;;1.00;0.77;;;;;;;3.86;100.00;96933.81;3933397;74;383549;-80
2021/01/29 07:14:59;;;;;;;1.20;1.10;;;;;;;3.89;100.00;96923.49;3932378;74;391917;-79
2021/01/29 07:20:23;;;;;;;2.10;2.00;;;;;;;3.99;100.00;96924.71;3934189;74;393943;-79
2021/01/29 07:26:11;;;;;;;1.80;1.70;;;;;;;4.15;100.00;96918.09;3934784;74;383576;-79
2021/01/29 07:31:57;;;;;;;3.37;1.73;;;;;;;4.07;100.00;96909.84;3934130;74;396362;-80
2021/01/29 07:37:45;;;;;;;2.13;1.23;;;;;;;4.08;100.00;96909.23;3934284;74;391895;-79
2021/01/29 07:43:44;;;;;;;2.97;1.80;;;;;;;4.16;100.00;96899.23;3934107;74;396064;-79
2021/01/29 07:49:41;;;;;;;1.47;1.37;;;;;;;4.28;100.00;96885.05;3932262;74;394230;-80
2021/01/29 07:55:14;;;;;;;4.40;1.73;;;;;;;4.37;100.00;96879.86;3932427;74;394958;-80
2021/01/29 08:00:38;;;;;;;1.17;1.07;;;;;;;4.52;100.00;96868.17;3934990;74;392879;-81
2021/01/29 08:06:17;;;;;;;0.80;0.60;;;;;;;4.62;100.00;96874.81;3920519;74;385566;-80
2021/01/29 08:11:41;;;;;;;0.80;0.40;;;;;;;4.83;100.00;96901.71;3934401;74;383665;-80
2021/01/29 08:17:32;;;;;;;0.80;0.50;;;;;;;6.04;100.00;96876.83;3935449;74;383580;-81
2021/01/29 08:23:26;;;;;;;0.90;0.50;;;;;;;6.80;100.00;96884.42;3935241;74;384602;-80
2021/01/29 08:29:24;;;;;;;0.80;0.40;;;;;;;7.80;100.00;96889.19;3935343;74;384557;-81
2021/01/29 08:35:00;;;;;;;0.80;0.50;;;;;;;8.18;100.00;96908.66;3935393;74;384865;-81
2021/01/29 08:40:27;;;;;;;1.50;1.13;;;;;;;8.13;100.00;96933.03;3874808;74;383817;-80
2021/01/29 08:45:55;;;;;;;0.80;0.50;;;;;;;8.09;100.00;96946.83;3933443;74;384520;-80
2021/01/29 08:51:20;;;;;;;1.13;0.93;;;;;;;8.05;100.00;96942.64;3935020;74;384535;-81
2021/01/29 08:57:03;;;;;;;0.93;0.50;;;;;;;8.04;100.00;96971.22;3932872;74;389031;-81
2021/01/29 09:02:45;;;;;;;0.80;0.40;;;;;;;7.99;100.00;96987.58;3933614;74;383585;-81
2021/01/29 09:08:09;;;;;;;0.80;0.40;;;;;;;7.90;100.00;96983.32;3884920;74;383573;-83
2021/01/29 09:13:32;;;;;;;0.80;0.40;;;;;;;7.81;100.00;97024.83;3933155;74;383569;-80
2021/01/29 09:19:09;;;;;;;0.80;0.40;;;;;;;7.80;100.00;97024.66;3933209;74;384542;-81
2021/01/29 09:24:54;;;;;;;0.80;0.40;;;;;;;7.82;100.00;97029.11;3933089;74;384796;-80
2021/01/29 09:30:21;;;;;;;0.80;0.40;;;;;;;7.83;100.00;97038.86;3933404;74;384514;-81
2021/01/29 09:35:45;;;;;;;0.80;0.40;;;;;;;7.77;100.00;97042.54;3934176;74;383907;-81
2021/01/29 09:41:21;;;;;;;8.00;0.50;;;;;;;7.67;100.00;97048.46;3932639;74;387720;-81
2021/01/29 09:46:46;;;;;;;0.80;0.40;;;;;;;7.70;100.00;97046.83;3935325;74;384808;-81
2021/01/29 09:52:12;;;;;;;0.80;0.40;;;;;;;7.92;100.00;97049.94;3933263;74;383974;-76
2021/01/29 09:57:48;;;;;;;0.80;0.40;;;;;;;7.90;100.00;97055.10;3935262;74;384547;-76
2021/01/29 10:03:14;;;;;;;0.80;0.40;;;;;;;8.02;100.00;97061.22;3905949;74;384547;-76
2021/01/29 10:08:46;;;;;;;1.37;0.80;;;;;;;8.10;100.00;97047.52;3933495;74;383785;-77
2021/01/29 10:14:10;;;;;;;0.80;0.40;;;;;;;8.13;100.00;97054.88;3934450;74;383782;-79
2021/01/29 10:19:46;;;;;;;0.90;0.50;;;;;;;8.18;100.00;97057.89;3934221;74;388006;-77
2021/01/29 10:25:27;;;;;;;0.80;0.40;;;;;;;8.18;100.00;97042.84;3935417;74;384518;-76
2021/01/29 10:31:00;;;;;;;0.80;0.40;;;;;;;8.30;100.00;97069.48;3935482;74;384850;-76
2021/01/29 10:36:27;;;;;;;2.13;1.33;;;;;;;8.35;100.00;97068.19;3935029;74;383991;-76
2021/01/29 10:41:55;;;;;;;0.80;0.40;;;;;;;8.46;100.00;97072.79;3933388;74;383839;-76
2021/01/29 10:47:25;;;;;;;0.80;0.50;;;;;;;8.63;100.00;97083.86;3933455;74;383581;-76
2021/01/29 10:53:04;;;;;;;0.80;0.40;;;;;;;8.73;100.00;97092.53;3934420;74;383789;-76
2021/01/29 10:58:43;;;;;;;3.43;1.70;;;;;;;8.83;100.00;97098.94;3932998;74;396033;-76
2021/01/29 11:04:07;;;;;;;0.80;0.50;;;;;;;8.87;100.00;97114.09;3935448;74;384556;-76
2021/01/29 11:09:33;;;;;;;0.80;0.40;;;;;;;8.93;100.00;97119.19;3933353;74;384564;-76
2021/01/29 11:15:00;;;;;;;0.90;0.50;;;;;;;8.95;100.00;97168.09;3933234;74;383889;-76
2021/01/29 11:20:24;;;;;;;1.60;1.50;;;;;;;9.00;100.00;97141.53;3932653;74;384849;-76
2021/01/29 11:26:08;;;;;;;0.80;0.40;;;;;;;8.94;100.00;97159.12;3935422;74;384625;-75
2021/01/29 11:31:41;;;;;;;0.80;0.50;;;;;;;8.91;100.00;97147.64;3934362;74;384506;-75
2021/01/29 11:37:09;;;;;;;0.80;0.40;;;;;;;9.00;100.00;97154.62;3935401;74;384514;-76
2021/01/29 11:42:44;;;;;;;0.80;0.40;;;;;;;8.96;100.00;97166.31;3894901;74;384514;-77
2021/01/29 11:48:23;;;;;;;0.80;0.40;;;;;;;8.98;100.00;97176.84;3919039;74;385519;-76
2021/01/29 11:53:50;;;;;;;0.80;0.50;;;;;;;9.02;100.00;97163.20;3934345;74;384528;-76
2021/01/29 11:59:14;;;;;;;0.80;0.40;;;;;;;9.09;100.00;97178.08;3934237;74;384495;-76
2021/01/29 12:04:44;;;;;;;0.80;0.50;;;;;;;9.13;100.00;97182.84;3934275;74;384510;-76
2021/01/29 12:10:20;;;;;;;0.80;0.40;;;;;;;9.31;100.00;97182.36;3935387;74;384766;-75
2021/01/29 12:15:44;;;;;;;0.80;0.40;;;;;;;9.40;100.00;97194.22;3906025;74;384657;-75
2021/01/29 12:21:08;;;;;;;2.70;2.50;;;;;;;9.44;100.00;97197.64;3934199;74;397061;-75
2021/01/29 12:26:49;;;;;;;1.63;1.10;;;;;;;9.40;100.00;97202.45;3932367;74;387927;-76
2021/01/29 12:32:26;;;;;;;2.40;1.17;;;;;;;9.40;100.00;97198.33;3917414;74;395014;-75
2021/01/29 12:37:59;;;;;;;0.80;0.50;;;;;;;9.43;100.00;97184.34;3935347;74;384522;-76
2021/01/29 12:43:36;;;;;;;0.80;0.50;;;;;;;9.49;100.00;97197.70;3935179;74;384541;-75
2021/01/29 12:49:15;;;;;;;15.13;0.70;;;;;;;9.44;100.00;97196.27;3934703;74;395006;-76
2021/01/29 12:54:58;;;;;;;2.03;1.83;;;;;;;9.32;100.00;97207.98;3934905;74;384553;-75
2021/01/29 13:00:32;;;;;;;10.23;0.93;;;;;;;9.39;100.00;97181.70;3932226;74;399273;-75
2021/01/29 13:05:55;;;;;;;0.80;0.50;;;;;;;9.57;100.00;97186.06;3935313;74;384806;-76
2021/01/29 13:11:36;;;;;;;0.93;0.60;;;;;;;9.59;100.00;97191.89;3933144;74;383585;-75
2021/01/29 13:17:15;;;;;;;0.90;0.60;;;;;;;9.56;100.00;97190.02;3935368;74;384550;-76
2021/01/29 13:22:43;;;;;;;0.80;0.40;;;;;;;9.48;100.00;97199.66;3933062;74;384546;-77
2021/01/29 13:28:16;;;;;;;0.90;0.50;;;;;;;9.36;100.00;97195.52;3912344;74;384547;-75
2021/01/29 13:33:38;;;;;;;7.80;1.33;;;;;;;9.34;100.00;97190.48;3894221;75;384500;-74
2021/01/29 13:39:11;;;;;;;1.50;1.33;;;;;;;9.40;100.00;97184.61;3895081;75;389849;-75
2021/01/29 13:44:54;;;;;;;2.93;1.07;;;;;;;9.32;100.00;97179.16;3893491;75;398060;-75
2021/01/29 13:50:24;;;;;;;0.80;0.40;;;;;;;9.41;100.00;97190.27;3893438;74;384558;-74
2021/01/29 13:55:52;;;;;;;5.17;1.10;;;;;;;9.31;100.00;97194.09;3893424;75;394942;-75
2021/01/29 14:01:16;;;;;;;0.80;0.40;;;;;;;9.15;100.00;97211.23;3893565;75;383842;-76
2021/01/29 14:06:37;;;;;;;0.90;0.70;;;;;;;9.04;100.00;97197.03;3893651;74;384503;-76
2021/01/29 14:12:16;;;;;;;0.80;0.40;;;;;;;9.00;100.00;97190.89;3893683;75;384493;-76
2021/01/29 14:17:46;;;;;;;0.80;0.40;;;;;;;9.07;100.00;97181.85;3879109;75;384508;-76
2021/01/29 14:23:37;;;;;;;0.80;0.40;;;;;;;9.28;100.00;97181.26;3895930;74;385535;-75
2021/01/29 14:29:16;;;;;;;0.80;0.40;;;;;;;9.37;100.00;97184.10;3894346;74;384554;-76
2021/01/29 14:34:58;;;;;;;0.80;0.40;;;;;;;9.39;100.00;97187.19;3895705;74;384550;-76
2021/01/29 14:40:43;;;;;;;2.70;0.50;;;;;;;9.37;100.00;97181.36;3894927;75;390751;-76
2021/01/29 14:46:10;;;;;;;1.20;0.70;;;;;;;9.28;100.00;97184.00;3893909;74;393939;-75
2021/01/29 14:51:37;;;;;;;0.90;0.50;;;;;;;9.16;100.00;97188.84;3894449;75;388075;-77
2021/01/29 14:57:11;;;;;;;0.80;0.50;;;;;;;9.05;100.00;97214.42;3895599;74;384527;-78
2021/01/29 15:02:44;;;;;;;0.90;0.70;;;;;;;8.12;100.00;97243.65;3894552;75;384553;-79
2021/01/29 15:08:07;;;;;;;0.97;0.87;;;;;;;7.71;100.00;97235.81;3893893;74;395066;-78
2021/01/29 15:13:49;;;;;;;0.80;0.50;;;;;;;7.68;100.00;97249.73;3894007;75;383538;-78
2021/01/29 15:19:25;;;;;;;0.90;0.53;;;;;;;7.55;100.00;97251.59;3885166;74;384546;-78
2021/01/29 15:24:52;;;;;;;0.90;0.70;;;;;;;7.47;100.00;97257.03;3893530;75;389838;-78
2021/01/29 15:30:16;;;;;;;0.80;0.50;;;;;;;7.36;100.00;97256.47;3926226;74;384572;-78
2021/01/29 15:35:37;;;;;;;0.90;0.67;;;;;;;7.28;100.00;97246.87;3935186;74;384521;-77
2021/01/29 15:41:02;;;;;;;1.10;0.50;;;;;;;7.22;100.00;97247.80;3932785;74;383577;-77
2021/01/29 15:46:48;;;;;;;0.80;0.40;;;;;;;7.13;100.00;97252.45;3933198;74;384764;-78
2021/01/29 15:52:12;;;;;;;0.80;0.40;;;;;;;7.01;100.00;97250.94;3933214;74;384526;-77
2021/01/29 15:57:42;;;;;;;0.80;0.40;;;;;;;6.93;100.00;97250.89;3933630;74;384797;-77
2021/01/29 16:03:05;;;;;;;1.03;0.90;;;;;;;6.92;100.00;97245.86;3934996;74;386695;-77
2021/01/29 16:08:34;;;;;;;1.20;1.10;;;;;;;6.91;100.00;97234.75;3933124;74;384547;-77
2021/01/29 16:13:59;;;;;;;0.80;0.50;;;;;;;6.91;100.00;97236.11;3933844;74;383798;-77
2021/01/29 16:19:24;;;;;;;1.43;1.33;;;;;;;6.97;100.00;97239.31;3934644;74;391848;-77
2021/01/29 16:24:48;;;;;;;0.90;0.77;;;;;;;6.91;100.00;97251.14;3933111;74;384537;-77
2021/01/29 16:30:11;;;;;;;4.27;1.00;;;;;;;6.94;100.00;97246.22;3934631;74;384510;-77
2021/01/29 16:35:35;;;;;;;0.90;0.77;;;;;;;6.90;100.00;97240.03;3935023;74;391867;-77
2021/01/29 16:40:58;;;;;;;0.80;0.40;;;;;;;6.93;100.00;97248.16;3935284;74;385788;-77
2021/01/29 16:46:25;;;;;;;3.03;1.23;;;;;;;6.91;100.00;97251.90;3932661;74;383580;-77
2021/01/29 16:52:01;;;;;;;2.10;1.00;;;;;;;7.08;100.00;97244.56;3934800;74;383572;-77
2021/01/29 16:57:23;;;;;;;1.20;0.87;;;;;;;7.27;100.00;97251.40;3933030;74;392839;-78
2021/01/29 17:02:47;;;;;;;24.67;1.97;;;;;;;7.40;100.00;97233.14;3932507;74;384570;-77
2021/01/29 17:08:11;;;;;;;0.90;0.70;;;;;;;7.35;100.00;97230.92;3933593;74;384544;-77
2021/01/29 17:13:33;;;;;;;0.90;0.67;;;;;;;7.31;100.00;97248.77;3933157;74;392154;-77
2021/01/29 17:19:03;;;;;;;0.93;0.77;;;;;;;7.40;100.00;97254.45;3933286;74;389765;-77
2021/01/29 17:24:29;;;;;;;0.90;0.50;;;;;;;7.41;100.00;97256.00;3933263;74;384559;-77
2021/01/29 17:29:57;;;;;;;1.63;0.90;;;;;;;7.47;100.00;97246.09;3934934;74;386713;-77
2021/01/29 17:35:21;;;;;;;1.37;1.27;;;;;;;7.53;100.00;97259.44;3935055;74;384629;-77
2021/01/29 17:40:51;;;;;;;0.80;0.50;;;;;;;7.48;100.00;97261.89;3935076;74;384498;-76
2021/01/29 17:46:15;;;;;;;0.80;0.40;;;;;;;7.62;100.00;97267.84;3933504;74;384518;-76
2021/01/29 17:51:37;;;;;;;1.00;0.70;;;;;;;7.49;100.00;97275.17;3933940;74;384505;-76
2021/01/29 17:57:02;;;;;;;1.50;0.70;;;;;;;7.50;100.00;97270.45;3933133;74;384589;-76
2021/01/29 18:02:23;;;;;;;0.80;0.40;;;;;;;7.52;100.00;97270.20;3933478;74;384518;-76
2021/01/29 18:08:05;;;;;;;1.20;1.10;;;;;;;7.59;100.00;97267.31;3932902;74;383564;-76
2021/01/29 18:13:27;;;;;;;2.17;1.27;;;;;;;7.58;100.00;97278.11;3933914;74;392144;-76
2021/01/29 18:18:50;;;;;;;0.80;0.50;;;;;;;7.64;100.00;97287.94;3932852;74;384496;-76
2021/01/29 18:24:14;;;;;;;0.80;0.60;;;;;;;7.73;100.00;97295.77;3933150;74;384556;-76
2021/01/29 18:29:36;;;;;;;2.60;1.10;;;;;;;7.77;100.00;97299.80;3932403;74;388706;-76
2021/01/29 18:34:59;;;;;;;5.33;1.63;;;;;;;7.72;100.00;97298.33;3932166;74;393965;-76
2021/01/29 18:40:20;;;;;;;4.90;2.40;;;;;;;7.61;100.00;97295.03;3934436;74;397336;-76
2021/01/29 18:45:42;;;;;;;1.23;0.63;;;;;;;7.62;100.00;97283.51;3933184;74;383833;-76
2021/01/29 18:51:03;;;;;;;1.00;0.70;;;;;;;7.60;100.00;97292.12;3933148;74;386625;-76
2021/01/29 18:56:25;;;;;;;0.80;0.40;;;;;;;7.54;100.00;97300.66;3933640;74;384547;-76
2021/01/29 19:01:46;;;;;;;0.90;0.60;;;;;;;7.55;100.00;97306.91;3933343;74;384813;-75
2021/01/29 19:07:07;;;;;;;1.60;1.03;;;;;;;7.51;100.00;97300.73;3933149;74;385982;-76
2021/01/29 19:12:29;;;;;;;0.90;0.70;;;;;;;7.43;100.00;97310.27;3933236;74;383593;-76
2021/01/29 19:17:50;;;;;;;1.13;1.03;;;;;;;7.43;100.00;97313.77;3932746;74;391148;-76
2021/01/29 19:23:11;;;;;;;0.90;0.57;;;;;;;7.38;100.00;97317.00;3933122;74;384546;-75
2021/01/29 19:28:33;;;;;;;3.33;0.70;;;;;;;7.31;100.00;97329.45;3932748;74;394977;-75
2021/01/29 19:33:55;;;;;;;1.10;0.73;;;;;;;7.32;100.00;97330.99;3933111;74;387852;-75
2021/01/29 19:39:16;;;;;;;0.80;0.50;;;;;;;7.33;100.00;97328.44;3933427;74;384593;-76
2021/01/29 19:44:37;;;;;;;1.10;0.70;;;;;;;7.30;100.00;97325.16;3933144;74;384546;-76
2021/01/29 19:49:58;;;;;;;0.80;0.40;;;;;;;7.26;100.00;97328.58;3933522;74;384606;-76
2021/01/29 19:55:20;;;;;;;1.00;0.60;;;;;;;7.29;100.00;97320.13;3933090;74;384544;-76
2021/01/29 20:00:42;;;;;;;0.90;0.73;;;;;;;7.22;100.00;97322.39;3933195;74;384553;-76
2021/01/29 20:06:03;;;;;;;0.90;0.60;;;;;;;7.22;100.00;97321.02;3933456;74;384531;-76
2021/01/29 20:11:24;;;;;;;0.80;0.50;;;;;;;7.20;100.00;97326.74;3933259;74;384550;-76
2021/01/29 20:16:45;;;;;;;0.90;0.60;;;;;;;7.18;100.00;97316.23;3933151;74;384534;-75
2021/01/29 20:22:08;;;;;;;1.00;0.80;;;;;;;7.17;100.00;97328.35;3932937;74;388984;-75
2021/01/29 20:27:29;;;;;;;1.00;0.83;;;;;;;7.23;100.00;97343.66;3933328;74;384526;-75
2021/01/29 20:32:51;;;;;;;0.80;0.40;;;;;;;7.25;100.00;97348.91;3902135;74;384516;-75
2021/01/29 20:38:12;;;;;;;0.80;0.50;;;;;;;7.33;100.00;97347.58;3893887;75;383541;-75
2021/01/29 20:43:35;;;;;;;0.80;0.40;;;;;;;7.33;100.00;97350.32;3893708;74;383541;-75
2021/01/29 20:48:56;;;;;;;0.80;0.40;;;;;;;7.33;100.00;97354.42;3893803;74;384558;-75
2021/01/29 20:54:19;;;;;;;1.23;0.70;;;;;;;7.27;100.00;97353.34;3893292;75;393952;-75
2021/01/29 20:59:40;;;;;;;0.80;0.40;;;;;;;7.22;100.00;97347.00;3893555;75;383628;-75
2021/01/29 21:05:02;;;;;;;0.80;0.40;;;;;;;7.12;100.00;97366.34;3893530;75;383790;-76
2021/01/29 21:10:29;;;;;;;0.83;0.50;;;;;;;7.14;100.00;97370.80;3893744;74;383546;-75
2021/01/29 21:15:51;;;;;;;2.07;0.73;;;;;;;7.09;100.00;97380.83;3895481;75;384546;-75
2021/01/29 21:21:12;;;;;;;0.80;0.40;;;;;;;7.11;100.00;97388.64;3893906;75;384517;-75
2021/01/29 21:26:44;;;;;;;0.80;0.40;;;;;;;7.11;100.00;97380.44;3893771;75;384562;-74
2021/01/29 21:32:07;;;;;;;1.13;1.00;;;;;;;7.01;100.00;97380.02;3893117;74;396356;-75
2021/01/29 21:37:28;;;;;;;0.90;0.43;;;;;;;7.07;100.00;97374.24;3893679;75;388937;-75
2021/01/29 21:42:52;;;;;;;7.50;1.27;;;;;;;6.99;100.00;97380.41;3893243;74;388710;-76
2021/01/29 21:48:15;;;;;;;0.90;0.50;;;;;;;7.03;100.00;97376.28;3895890;74;384489;-76
2021/01/29 21:53:36;;;;;;;1.10;0.50;;;;;;;7.04;100.00;97386.00;3893077;75;388659;-76
2021/01/29 21:58:58;;;;;;;0.80;0.50;;;;;;;7.02;100.00;97370.63;3893824;74;384499;-76
2021/01/29 22:04:19;;;;;;;0.80;0.40;;;;;;;6.96;100.00;97386.73;3893477;75;384518;-76
2021/01/29 22:09:40;;;;;;;1.30;0.70;;;;;;;6.90;100.00;97384.30;3893565;74;384507;-76
2021/01/29 22:15:01;;;;;;;0.80;0.40;;;;;;;6.89;100.00;97388.22;3893868;75;383580;-76
2021/01/29 22:20:23;;;;;;;0.80;0.40;;;;;;;6.93;100.00;97403.19;3893928;75;383577;-76
2021/01/29 22:25:44;;;;;;;0.80;0.40;;;;;;;6.92;100.00;97405.74;3893912;75;384521;-75
2021/01/29 22:31:05;;;;;;;0.80;0.40;;;;;;;6.97;100.00;97407.98;3901455;74;383797;-76
2021/01/29 22:36:26;;;;;;;0.90;0.60;;;;;;;6.98;100.00;97393.92;3933544;74;388043;-76
2021/01/29 22:41:48;;;;;;;0.80;0.40;;;;;;;7.01;100.00;97395.05;3933378;74;384796;-76
2021/01/29 22:47:09;;;;;;;0.80;0.40;;;;;;;7.04;100.00;97404.56;3933597;74;384511;-76
2021/01/29 22:52:31;;;;;;;0.80;0.50;;;;;;;7.15;100.00;97410.02;3933333;74;384581;-75
2021/01/29 22:57:52;;;;;;;0.80;0.43;;;;;;;7.19;100.00;97397.05;3933358;74;383820;-75
2021/01/29 23:03:17;;;;;;;0.80;0.40;;;;;;;7.21;100.00;97404.24;3933586;74;383553;-76
2021/01/29 23:08:39;;;;;;;0.93;0.60;;;;;;;7.22;100.00;97393.48;3933022;74;387994;-75
2021/01/29 23:14:00;;;;;;;0.90;0.50;;;;;;;7.16;100.00;97393.01;3933255;74;383588;-75
2021/01/29 23:19:25;;;;;;;0.80;0.50;;;;;;;7.10;100.00;97399.39;3933440;74;384557;-75
2021/01/29 23:24:45;;;;;;;0.90;0.67;;;;;;;7.01;100.00;97401.88;3933396;74;388037;-75
2021/01/29 23:30:08;;;;;;;0.80;0.40;;;;;;;7.06;100.00;97401.40;3933186;74;384499;-75
2021/01/29 23:35:32;;;;;;;0.80;0.50;;;;;;;6.95;100.00;97400.80;3894962;74;384540;-75
2021/01/29 23:40:54;;;;;;;0.97;0.67;;;;;;;6.96;100.00;97383.20;3893532;75;384584;-75
2021/01/29 23:46:17;;;;;;;0.90;0.60;;;;;;;7.06;100.00;97382.27;3893859;75;384542;-75
2021/01/29 23:51:38;;;;;;;0.90;0.50;;;;;;;7.14;100.00;97392.06;3893727;75;383589;-75
2021/01/29 23:56:59;;;;;;;0.80;0.50;;;;;;;7.24;100.00;97382.13;3893738;74;384511;-75
